Time,TemperatureF,DewpointF,PressureIn,WindDirection,WindDirectionDegrees,WindSpeedMPH,WindSpeedGustMPH,Humidity,HourlyPrecipIn,Conditions,Clouds,dailyrainin,SoftwareType,DateUTC
2014-01-18 00:10:00,56.5,39.0,30.12,NW,309,2.0,4.0,52,0.00,,,0.00,weatherlink.com 1.10,2014-01-18 05:10:00,
2014-01-18 00:25:00,56.2,40.0,30.12,NW,309,2.0,4.0,54,0.00,,,0.00,weatherlink.com 1.10,2014-01-18 05:25:00,
2014-01-18 00:40:00,55.9,39.0,30.12,NW,305,5.0,5.0,54,0.00,,,0.00,weatherlink.com 1.10,2014-01-18 05:40:00,
2014-01-18 00:55:00,56.0,39.0,30.11,WNW,302,2.0,7.0,53,0.00,,,0.00,weatherlink.com 1.10,2014-01-18 05:55:00,
2014-01-18 01:10:00,55.9,39.0,30.12,NW,305,4.0,7.0,53,0.00,,,0.00,weatherlink.com 1.10,2014-01-18 06:10:00,
2014-01-18 01:25:00,55.7,39.0,30.12,WNW,297,2.0,8.0,54,0.00,,,0.00,weatherlink.com 1.10,2014-01-18 06:25:00,
2014-01-18 01:40:00,55.4,39.0,30.13,WNW,303,5.0,7.0,54,0.00,,,0.00,weatherlink.com 1.10,2014-01-18 06:40:00,
2014-01-18 01:55:00,55.2,38.0,30.12,WNW,293,1.0,8.0,52,0.00,,,0.00,weatherlink.com 1.10,2014-01-18 06:55:00,
2014-01-18 02:10:00,55.0,37.0,30.12,WNW,290,2.0,6.0,52,0.00,,,0.00,weatherlink.com 1.10,2014-01-18 07:10:00,
2014-01-18 02:25:00,54.6,38.0,30.12,NW,308,3.0,7.0,53,0.00,,,0.00,weatherlink.com 1.10,2014-01-18 07:25:00,
2014-01-18 02:40:00,54.2,38.0,30.12,NW,312,3.0,6.0,54,0.00,,,0.00,weatherlink.com 1.10,2014-01-18 07:40:00,
2014-01-18 02:55:00,53.7,37.0,30.12,WNW,301,4.0,6.0,54,0.00,,,0.00,weatherlink.com 1.10,2014-01-18 07:55:00,
2014-01-18 03:10:00,53.4,37.0,30.12,WNW,301,2.0,4.0,55,0.00,,,0.00,weatherlink.com 1.10,2014-01-18 08:10:00,
2014-01-18 03:25:00,52.9,39.0,30.13,WNW,301,3.0,4.0,59,0.00,,,0.00,weatherlink.com 1.10,2014-01-18 08:25:00,
2014-01-18 03:40:00,52.6,41.0,30.12,WNW,298,1.0,5.0,64,0.00,,,0.00,weatherlink.com 1.10,2014-01-18 08:40:00,
2014-01-18 03:55:00,52.3,42.0,30.12,WNW,298,1.0,4.0,67,0.00,,,0.00,weatherlink.com 1.10,2014-01-18 08:55:00,
2014-01-18 04:10:00,52.0,42.0,30.12,WNW,298,2.0,4.0,70,0.00,,,0.00,weatherlink.com 1.10,2014-01-18 09:10:00,
2014-01-18 04:26:00,51.5,43.0,30.11,WNW,298,2.0,3.0,72,0.00,,,0.00,weatherlink.com 1.10,2014-01-18 09:26:00,
2014-01-18 04:41:00,51.2,43.0,30.12,WNW,298,2.0,4.0,74,0.00,,,0.00,weatherlink.com 1.10,2014-01-18 09:41:00,
2014-01-18 04:56:00,51.3,44.0,30.12,WNW,298,2.0,5.0,75,0.00,,,0.00,weatherlink.com 1.10,2014-01-18 09:56:00,
2014-01-18 05:11:00,51.2,44.0,30.12,WNW,298,1.0,3.0,75,0.00,,,0.00,weatherlink.com 1.10,2014-01-18 10:11:00,
2014-01-18 05:26:00,51.1,44.0,30.12,WNW,298,1.0,3.0,76,0.00,,,0.00,weatherlink.com 1.10,2014-01-18 10:26:00,
2014-01-18 05:41:00,50.8,44.0,30.12,WNW,298,1.0,3.0,76,0.00,,,0.00,weatherlink.com 1.10,2014-01-18 10:41:00,
2014-01-18 05:56:00,50.6,44.0,30.13,WNW,298,1.0,3.0,77,0.00,,,0.00,weatherlink.com 1.10,2014-01-18 10:56:00,
2014-01-18 06:11:00,50.5,44.0,30.14,WNW,298,2.0,3.0,78,0.00,,,0.00,weatherlink.com 1.10,2014-01-18 11:11:00,
2014-01-18 06:26:00,50.4,44.0,30.14,WNW,298,2.0,3.0,80,0.00,,,0.00,weatherlink.com 1.10,2014-01-18 11:26:00,
2014-01-18 06:41:00,50.3,45.0,30.14,WNW,298,0.0,3.0,81,0.00,,,0.00,weatherlink.com 1.10,2014-01-18 11:41:00,
2014-01-18 06:56:00,50.2,45.0,30.14,WNW,298,2.0,4.0,82,0.00,,,0.00,weatherlink.com 1.10,2014-01-18 11:56:00,
2014-01-18 07:11:00,50.3,45.0,30.14,WNW,298,2.0,4.0,83,0.00,,,0.00,weatherlink.com 1.10,2014-01-18 12:11:00,
2014-01-18 07:26:00,50.6,46.0,30.14,WNW,298,3.0,5.0,83,0.00,,,0.00,weatherlink.com 1.10,2014-01-18 12:26:00,
2014-01-18 07:41:00,50.9,46.0,30.15,WNW,298,4.0,5.0,83,0.00,,,0.00,weatherlink.com 1.10,2014-01-18 12:41:00,
2014-01-18 07:56:00,51.4,46.0,30.16,WNW,298,4.0,5.0,82,0.00,,,0.00,weatherlink.com 1.10,2014-01-18 12:56:00,
2014-01-18 08:11:00,51.8,46.0,30.16,WNW,298,1.0,4.0,81,0.00,,,0.00,weatherlink.com 1.10,2014-01-18 13:11:00,
2014-01-18 08:26:00,54.0,47.0,30.17,WNW,297,2.0,5.0,77,0.00,,,0.00,weatherlink.com 1.10,2014-01-18 13:26:00,
2014-01-18 08:41:00,56.4,46.0,30.17,WNW,297,3.0,4.0,69,0.00,,,0.00,weatherlink.com 1.10,2014-01-18 13:41:00,
2014-01-18 08:56:00,58.9,45.0,30.18,West,276,2.0,6.0,60,0.00,,,0.00,weatherlink.com 1.10,2014-01-18 13:56:00,
2014-01-18 09:11:00,61.3,46.0,30.19,West,260,3.0,6.0,58,0.00,,,0.00,weatherlink.com 1.10,2014-01-18 14:11:00,
2014-01-18 09:26:00,62.3,49.0,30.20,NW,314,12.0,17.0,62,0.00,,,0.00,weatherlink.com 1.10,2014-01-18 14:26:00,
2014-01-18 09:41:00,63.0,51.0,30.21,NW,314,7.0,15.0,65,0.00,,,0.00,weatherlink.com 1.10,2014-01-18 14:41:00,
2014-01-18 09:56:00,64.8,51.0,30.21,NNW,327,4.0,15.0,62,0.00,,,0.00,weatherlink.com 1.10,2014-01-18 14:56:00,
2014-01-18 10:11:00,65.8,51.0,30.21,NNW,329,13.0,14.0,59,0.00,,,0.00,weatherlink.com 1.10,2014-01-18 15:11:00,
2014-01-18 10:26:00,66.0,51.0,30.21,NNW,341,4.0,11.0,58,0.00,,,0.00,weatherlink.com 1.10,2014-01-18 15:26:00,
2014-01-18 10:41:00,67.2,51.0,30.21,WNW,291,8.0,13.0,56,0.00,,,0.00,weatherlink.com 1.10,2014-01-18 15:41:00,
2014-01-18 10:56:00,68.0,50.0,30.21,NNW,330,8.0,14.0,53,0.00,,,0.00,weatherlink.com 1.10,2014-01-18 15:56:00,
2014-01-18 11:11:00,70.1,50.0,30.20,NW,314,6.0,13.0,49,0.00,,,0.00,weatherlink.com 1.10,2014-01-18 16:11:00,
2014-01-18 11:26:00,70.8,50.0,30.20,NNW,345,5.0,14.0,48,0.00,,,0.00,weatherlink.com 1.10,2014-01-18 16:26:00,
2014-01-18 11:41:00,72.0,50.0,30.19,NW,315,6.0,13.0,46,0.00,,,0.00,weatherlink.com 1.10,2014-01-18 16:41:00,
2014-01-18 11:56:00,73.0,50.0,30.19,NNW,333,3.0,13.0,44,0.00,,,0.00,weatherlink.com 1.10,2014-01-18 16:56:00,
2014-01-18 12:11:00,72.6,50.0,30.18,NNW,339,4.0,13.0,45,0.00,,,0.00,weatherlink.com 1.10,2014-01-18 17:11:00,
2014-01-18 12:26:00,71.7,50.0,30.18,NW,320,7.0,12.0,46,0.00,,,0.00,weatherlink.com 1.10,2014-01-18 17:26:00,
2014-01-18 12:41:00,72.6,49.0,30.17,NW,313,6.0,12.0,44,0.00,,,0.00,weatherlink.com 1.10,2014-01-18 17:41:00,
2014-01-18 12:56:00,73.5,49.0,30.16,NW,316,9.0,14.0,42,0.00,,,0.00,weatherlink.com 1.10,2014-01-18 17:56:00,
2014-01-18 13:11:00,72.0,48.0,30.15,WNW,302,7.0,16.0,43,0.00,,,0.00,weatherlink.com 1.10,2014-01-18 18:11:00,
2014-01-18 13:27:00,73.5,49.0,30.14,WNW,291,8.0,14.0,42,0.00,,,0.00,weatherlink.com 1.10,2014-01-18 18:27:00,
2014-01-18 13:42:00,73.1,48.0,30.14,North,354,5.0,12.0,41,0.00,,,0.00,weatherlink.com 1.10,2014-01-18 18:42:00,
2014-01-18 13:57:00,73.1,48.0,30.14,NW,310,5.0,13.0,41,0.00,,,0.00,weatherlink.com 1.10,2014-01-18 18:57:00,
2014-01-18 14:12:00,73.4,48.0,30.14,NNW,335,7.0,15.0,40,0.00,,,0.00,weatherlink.com 1.10,2014-01-18 19:12:00,
2014-01-18 14:27:00,71.5,46.0,30.13,West,278,6.0,15.0,41,0.00,,,0.00,weatherlink.com 1.10,2014-01-18 19:27:00,
2014-01-18 14:42:00,72.1,46.0,30.13,WNW,290,0.0,16.0,39,0.00,,,0.00,weatherlink.com 1.10,2014-01-18 19:42:00,
2014-01-18 14:57:00,72.3,44.0,30.13,NNW,334,12.0,21.0,36,0.00,,,0.00,weatherlink.com 1.10,2014-01-18 19:57:00,
2014-01-18 15:12:00,70.8,44.0,30.13,WNW,298,11.0,17.0,38,0.00,,,0.00,weatherlink.com 1.10,2014-01-18 20:12:00,
2014-01-18 15:27:00,71.3,42.0,30.13,NW,324,8.0,19.0,35,0.00,,,0.00,weatherlink.com 1.10,2014-01-18 20:27:00,
2014-01-18 15:42:00,71.1,41.0,30.13,NNW,333,8.0,16.0,34,0.00,,,0.00,weatherlink.com 1.10,2014-01-18 20:42:00,
2014-01-18 15:57:00,71.0,40.0,30.13,NW,306,8.0,20.0,32,0.00,,,0.00,weatherlink.com 1.10,2014-01-18 20:57:00,
2014-01-18 16:12:00,69.9,37.0,30.13,WNW,303,10.0,14.0,30,0.00,,,0.00,weatherlink.com 1.10,2014-01-18 21:12:00,
2014-01-18 16:27:00,68.9,32.0,30.14,NW,311,6.0,15.0,25,0.00,,,0.00,weatherlink.com 1.10,2014-01-18 21:27:00,
2014-01-18 16:42:00,67.7,32.0,30.14,North,10,5.0,16.0,27,0.00,,,0.00,weatherlink.com 1.10,2014-01-18 21:42:00,
2014-01-18 16:57:00,66.2,33.0,30.14,NNW,329,11.0,15.0,29,0.00,,,0.00,weatherlink.com 1.10,2014-01-18 21:57:00,
2014-01-18 17:12:00,65.6,32.0,30.14,NW,314,9.0,12.0,29,0.00,,,0.00,weatherlink.com 1.10,2014-01-18 22:12:00,
2014-01-18 17:27:00,64.6,32.0,30.15,NW,322,6.0,12.0,30,0.00,,,0.00,weatherlink.com 1.10,2014-01-18 22:27:00,
2014-01-18 17:42:00,63.2,33.0,30.15,WNW,293,4.0,8.0,32,0.00,,,0.00,weatherlink.com 1.10,2014-01-18 22:42:00,
2014-01-18 17:57:00,62.2,34.0,30.15,NW,306,2.0,6.0,35,0.00,,,0.00,weatherlink.com 1.10,2014-01-18 22:57:00,
2014-01-18 18:12:00,60.4,35.0,30.14,NW,306,3.0,5.0,39,0.00,,,0.00,weatherlink.com 1.10,2014-01-18 23:12:00,
2014-01-18 18:27:00,59.3,35.0,30.14,NW,306,1.0,4.0,41,0.00,,,0.00,weatherlink.com 1.10,2014-01-18 23:27:00,
2014-01-18 18:42:00,58.8,36.0,30.15,NW,306,0.0,2.0,43,0.00,,,0.00,weatherlink.com 1.10,2014-01-18 23:42:00,
2014-01-18 18:57:00,57.9,37.0,30.15,NW,306,3.0,4.0,46,0.00,,,0.00,weatherlink.com 1.10,2014-01-18 23:57:00,
2014-01-18 19:12:00,57.2,37.0,30.16,NW,306,0.0,3.0,48,0.00,,,0.00,weatherlink.com 1.10,2014-01-19 00:12:00,
2014-01-18 19:27:00,56.3,39.0,30.16,NW,307,2.0,3.0,52,0.00,,,0.00,weatherlink.com 1.10,2014-01-19 00:27:00,
2014-01-18 19:42:00,55.7,38.0,30.17,NW,306,0.0,3.0,52,0.00,,,0.00,weatherlink.com 1.10,2014-01-19 00:42:00,
2014-01-18 19:57:00,55.0,39.0,30.17,NW,307,1.0,4.0,56,0.00,,,0.00,weatherlink.com 1.10,2014-01-19 00:57:00,
2014-01-18 20:12:00,54.4,39.0,30.18,NW,306,2.0,3.0,57,0.00,,,0.00,weatherlink.com 1.10,2014-01-19 01:12:00,
2014-01-18 20:27:00,53.8,39.0,30.18,NW,307,0.0,2.0,58,0.00,,,0.00,weatherlink.com 1.10,2014-01-19 01:27:00,
2014-01-18 20:43:00,53.4,39.0,30.18,NW,307,0.0,2.0,59,0.00,,,0.00,weatherlink.com 1.10,2014-01-19 01:43:00,
2014-01-18 20:58:00,53.0,40.0,30.18,NW,306,0.0,3.0,61,0.00,,,0.00,weatherlink.com 1.10,2014-01-19 01:58:00,
2014-01-18 21:13:00,52.2,40.0,30.18,NW,306,1.0,2.0,64,0.00,,,0.00,weatherlink.com 1.10,2014-01-19 02:13:00,
2014-01-18 21:28:00,51.8,41.0,30.18,NW,306,0.0,3.0,67,0.00,,,0.00,weatherlink.com 1.10,2014-01-19 02:28:00,
2014-01-18 21:43:00,51.4,40.0,30.18,NW,306,0.0,1.0,66,0.00,,,0.00,weatherlink.com 1.10,2014-01-19 02:43:00,
2014-01-18 21:58:00,50.6,41.0,30.18,NW,306,0.0,2.0,69,0.00,,,0.00,weatherlink.com 1.10,2014-01-19 02:58:00,
2014-01-18 22:13:00,50.1,41.0,30.18,NW,306,0.0,2.0,72,0.00,,,0.00,weatherlink.com 1.10,2014-01-19 03:13:00,
2014-01-18 22:28:00,49.3,41.0,30.18,NW,306,3.0,4.0,74,0.00,,,0.00,weatherlink.com 1.10,2014-01-19 03:28:00,
2014-01-18 22:43:00,49.3,41.0,30.18,NW,306,2.0,3.0,74,0.00,,,0.00,weatherlink.com 1.10,2014-01-19 03:43:00,
2014-01-18 22:58:00,48.7,40.0,30.17,NW,306,2.0,5.0,73,0.00,,,0.00,weatherlink.com 1.10,2014-01-19 03:58:00,
2014-01-18 23:13:00,48.2,40.0,30.17,NW,306,1.0,4.0,73,0.00,,,0.00,weatherlink.com 1.10,2014-01-19 04:13:00,
2014-01-18 23:28:00,48.0,39.0,30.17,NW,307,3.0,5.0,72,0.00,,,0.00,weatherlink.com 1.10,2014-01-19 04:28:00,
2014-01-18 23:43:00,47.6,39.0,30.16,NW,306,0.0,2.0,71,0.00,,,0.00,weatherlink.com 1.10,2014-01-19 04:43:00,
2014-01-18 23:58:00,47.1,38.0,30.16,NW,307,2.0,2.0,70,0.00,,,0.00,weatherlink.com 1.10,2014-01-19 04:58:00,